Wetterdaten: Montag, 11.10.2010
Datum Zeit Temp. A. Feuchte A. Luftdruck Regen Wind Richtung Richtung Sonnenschein UV Solar Windben
11.10.2010 00:00 7,2 C 77 % 1015,8 hPa 0,0 mm 0,1 km/h (0 Bft) O 79 0 min 0 UV-I 0 W/m 3,2 km/h (1 Bft)
11.10.2010 00:10 6,9 C 78 % 1015,6 hPa 0,0 mm 0,0 km/h (0 Bft) O 79 0 min 0 UV-I 0 W/m 0,0 km/h (0 Bft)
11.10.2010 00:20 6,6 C 78 % 1015,7 hPa 0,0 mm 0,1 km/h (0 Bft) O 82 0 min 0 UV-I 0 W/m 3,2 km/h (1 Bft)
11.10.2010 00:30 6,4 C 80 % 1015,7 hPa 0,0 mm 0,8 km/h (0 Bft) O 91 0 min 0 UV-I 0 W/m 4,8 km/h (1 Bft)
11.10.2010 00:40 6,8 C 78 % 1015,7 hPa 0,0 mm 3,2 km/h (1 Bft) O 90 0 min 0 UV-I 0 W/m 14,5 km/h (3 Bft)
11.10.2010 00:50 7,6 C 75 % 1015,5 hPa 0,0 mm 1,6 km/h (1 Bft) O-NO 67 0 min 0 UV-I 0 W/m 6,4 km/h (2 Bft)
11.10.2010 01:00 7,6 C 75 % 1015,3 hPa 0,0 mm 1,6 km/h (1 Bft) O 90 0 min 0 UV-I 0 W/m 6,4 km/h (2 Bft)
11.10.2010 01:10 7,5 C 75 % 1015,4 hPa 0,0 mm 1,6 km/h (1 Bft) O 90 0 min 0 UV-I 0 W/m 6,4 km/h (2 Bft)
11.10.2010 01:20 7,6 C 74 % 1015,5 hPa 0,0 mm 0,0 km/h (0 Bft) O 90 0 min 0 UV-I 0 W/m 1,6 km/h (1 Bft)
11.10.2010 01:30 7,2 C 76 % 1015,6 hPa 0,0 mm 0,0 km/h (0 Bft) N 0 0 min 0 UV-I 0 W/m 0,0 km/h (0 Bft)
11.10.2010 01:40 6,7 C 78 % 1015,6 hPa 0,0 mm 0,0 km/h (0 Bft) N 0 0 min 0 UV-I 0 W/m 0,0 km/h (0 Bft)
11.10.2010 01:50 6,4 C 80 % 1015,7 hPa 0,0 mm 0,0 km/h (0 Bft) O 90 0 min 0 UV-I 0 W/m 1,6 km/h (1 Bft)
11.10.2010 02:00 6,2 C 82 % 1015,6 hPa 0,0 mm 0,0 km/h (0 Bft) N 0 0 min 0 UV-I 0 W/m 0,0 km/h (0 Bft)
11.10.2010 02:10 6,1 C 82 % 1015,6 hPa 0,0 mm 0,0 km/h (0 Bft) O 90 0 min 0 UV-I 0 W/m 1,6 km/h (1 Bft)
11.10.2010 02:20 6,0 C 82 % 1015,6 hPa 0,0 mm 0,0 km/h (0 Bft) O 90 0 min 0 UV-I 0 W/m 1,6 km/h (1 Bft)
11.10.2010 02:30 5,9 C 82 % 1015,5 hPa 0,0 mm 0,0 km/h (0 Bft) O 90 0 min 0 UV-I 0 W/m 1,6 km/h (1 Bft)
11.10.2010 02:40 5,8 C 82 % 1015,5 hPa 0,0 mm 0,0 km/h (0 Bft) N 0 0 min 0 UV-I 0 W/m 0,0 km/h (0 Bft)
11.10.2010 02:50 5,7 C 82 % 1015,6 hPa 0,0 mm 0,0 km/h (0 Bft) O 90 0 min 0 UV-I 0 W/m 1,6 km/h (1 Bft)
11.10.2010 03:00 5,6 C 83 % 1015,7 hPa 0,0 mm 0,0 km/h (0 Bft) O 90 0 min 0 UV-I 0 W/m 1,6 km/h (1 Bft)
11.10.2010 03:10 5,4 C 84 % 1015,8 hPa 0,0 mm 0,0 km/h (0 Bft) N 0 0 min 0 UV-I 0 W/m 0,0 km/h (0 Bft)
11.10.2010 03:20 5,3 C 84 % 1015,6 hPa 0,0 mm 0,0 km/h (0 Bft) O 90 0 min 0 UV-I 0 W/m 1,6 km/h (1 Bft)
11.10.2010 03:30 5,1 C 85 % 1015,6 hPa 0,0 mm 0,0 km/h (0 Bft) N 0 0 min 0 UV-I 0 W/m 0,0 km/h (0 Bft)
11.10.2010 03:40 5,1 C 85 % 1015,4 hPa 0,0 mm 0,0 km/h (0 Bft) O 90 0 min 0 UV-I 0 W/m 1,6 km/h (1 Bft)
11.10.2010 03:50 5,0 C 85 % 1015,4 hPa 0,0 mm 0,0 km/h (0 Bft) N 0 0 min 0 UV-I 0 W/m 0,0 km/h (0 Bft)
11.10.2010 04:00 4,9 C 85 % 1015,4 hPa 0,0 mm 0,0 km/h (0 Bft) O 90 0 min 0 UV-I 0 W/m 1,6 km/h (1 Bft)
11.10.2010 04:10 5,0 C 84 % 1015,3 hPa 0,0 mm 0,0 km/h (0 Bft) O 90 0 min 0 UV-I 0 W/m 1,6 km/h (1 Bft)
11.10.2010 04:20 4,8 C 85 % 1015,4 hPa 0,0 mm 0,0 km/h (0 Bft) O-NO 67 0 min 0 UV-I 0 W/m 3,2 km/h (1 Bft)
11.10.2010 04:30 4,9 C 85 % 1015,3 hPa 0,0 mm 0,0 km/h (0 Bft) O-NO 67 0 min 0 UV-I 0 W/m 1,6 km/h (1 Bft)
11.10.2010 04:40 5,0 C 84 % 1015,4 hPa 0,0 mm 0,0 km/h (0 Bft) O-NO 67 0 min 0 UV-I 0 W/m 1,6 km/h (1 Bft)
11.10.2010 04:50 4,7 C 85 % 1015,6 hPa 0,0 mm 0,0 km/h (0 Bft) N 0 0 min 0 UV-I 0 W/m 0,0 km/h (0 Bft)
11.10.2010 05:00 4,4 C 85 % 1015,5 hPa 0,0 mm 0,0 km/h (0 Bft) O-NO 67 0 min 0 UV-I 0 W/m 1,6 km/h (1 Bft)
11.10.2010 05:10 4,2 C 86 % 1015,5 hPa 0,0 mm 0,0 km/h (0 Bft) N 0 0 min 0 UV-I 0 W/m 0,0 km/h (0 Bft)
11.10.2010 05:20 3,9 C 87 % 1015,5 hPa 0,0 mm 0,0 km/h (0 Bft) O-NO 67 0 min 0 UV-I 0 W/m 1,6 km/h (1 Bft)
11.10.2010 05:30 3,9 C 87 % 1015,5 hPa 0,0 mm 0,0 km/h (0 Bft) N 0 0 min 0 UV-I 0 W/m 0,0 km/h (0 Bft)
11.10.2010 05:40 3,9 C 88 % 1015,4 hPa 0,0 mm 0,0 km/h (0 Bft) N 0 0 min 0 UV-I 0 W/m 0,0 km/h (0 Bft)
11.10.2010 05:50 3,9 C 88 % 1015,3 hPa 0,0 mm 0,0 km/h (0 Bft) N 0 0 min 0 UV-I 0 W/m 0,0 km/h (0 Bft)
11.10.2010 06:00 3,7 C 89 % 1015,4 hPa 0,0 mm 0,0 km/h (0 Bft) O-NO 67 0 min 0 UV-I 0 W/m 1,6 km/h (1 Bft)
11.10.2010 06:10 3,8 C 89 % 1015,5 hPa 0,0 mm 0,0 km/h (0 Bft) O-NO 67 0 min 0 UV-I 0 W/m 3,2 km/h (1 Bft)
11.10.2010 06:20 3,9 C 90 % 1015,7 hPa 0,0 mm 0,0 km/h (0 Bft) O-NO 67 0 min 0 UV-I 0 W/m 3,2 km/h (1 Bft)
11.10.2010 06:30 4,2 C 90 % 1015,7 hPa 0,0 mm 0,0 km/h (0 Bft) NO 45 0 min 0 UV-I 0 W/m 3,2 km/h (1 Bft)
11.10.2010 06:40 4,1 C 89 % 1015,7 hPa 0,0 mm 0,0 km/h (0 Bft) N-NO 22 0 min 0 UV-I 0 W/m 3,2 km/h (1 Bft)
11.10.2010 06:50 3,8 C 89 % 1015,7 hPa 0,0 mm 0,0 km/h (0 Bft) N 0 0 min 0 UV-I 0 W/m 0,0 km/h (0 Bft)
11.10.2010 07:00 3,6 C 89 % 1015,7 hPa 0,0 mm 0,0 km/h (0 Bft) N-NO 22 0 min 0 UV-I 0 W/m 1,6 km/h (1 Bft)
11.10.2010 07:10 3,4 C 89 % 1015,8 hPa 0,0 mm 0,0 km/h (0 Bft) N 0 0 min 0 UV-I 0 W/m 0,0 km/h (0 Bft)
11.10.2010 07:20 3,3 C 89 % 1016,0 hPa 0,0 mm 0,0 km/h (0 Bft) N 0 0 min 0 UV-I 0 W/m 0,0 km/h (0 Bft)
11.10.2010 07:30 3,1 C 90 % 1016,0 hPa 0,0 mm 0,0 km/h (0 Bft) N-NO 22 0 min 0 UV-I 0 W/m 1,6 km/h (1 Bft)
11.10.2010 07:40 3,1 C 90 % 1016,1 hPa 0,0 mm 0,0 km/h (0 Bft) N 0 0 min 0 UV-I 0 W/m 0,0 km/h (0 Bft)
11.10.2010 07:50 3,0 C 90 % 1016,3 hPa 0,0 mm 0,0 km/h (0 Bft) N 0 0 min 0 UV-I 7 W/m 0,0 km/h (0 Bft)
11.10.2010 08:00 2,9 C 90 % 1016,5 hPa 0,0 mm 0,0 km/h (0 Bft) N-NO 22 0 min 0 UV-I 12 W/m 4,8 km/h (1 Bft)
11.10.2010 08:10 3,1 C 90 % 1016,4 hPa 0,0 mm 0,0 km/h (0 Bft) N-NO 22 0 min 0 UV-I 16 W/m 1,6 km/h (1 Bft)
11.10.2010 08:20 3,3 C 90 % 1016,3 hPa 0,0 mm 0,0 km/h (0 Bft) N 0 0 min 0 UV-I 18 W/m 0,0 km/h (0 Bft)
11.10.2010 08:30 3,3 C 90 % 1016,3 hPa 0,0 mm 0,0 km/h (0 Bft) N-NO 24 0 min 0 UV-I 21 W/m 0,0 km/h (0 Bft)
11.10.2010 08:40 3,3 C 90 % 1016,3 hPa 0,0 mm 0,0 km/h (0 Bft) N-NO 22 0 min 0 UV-I 72 W/m 1,6 km/h (1 Bft)
11.10.2010 08:50 3,6 C 91 % 1016,5 hPa 0,0 mm 0,0 km/h (0 Bft) N-NO 22 10 min 0 UV-I 128 W/m 1,6 km/h (1 Bft)
11.10.2010 09:00 4,2 C 90 % 1016,4 hPa 0,0 mm 0,0 km/h (0 Bft) N 0 10 min 1 UV-I 146 W/m 0,0 km/h (0 Bft)
11.10.2010 09:10 4,8 C 90 % 1016,5 hPa 0,0 mm 0,0 km/h (0 Bft) N 0 10 min 1 UV-I 158 W/m 0,0 km/h (0 Bft)
11.10.2010 09:20 5,6 C 88 % 1016,6 hPa 0,0 mm 0,0 km/h (0 Bft) N-NO 22 10 min 1 UV-I 183 W/m 1,6 km/h (1 Bft)
11.10.2010 09:30 6,2 C 86 % 1016,5 hPa 0,0 mm 0,0 km/h (0 Bft) N 0 10 min 1 UV-I 209 W/m 0,0 km/h (0 Bft)
11.10.2010 09:40 7,0 C 82 % 1016,5 hPa 0,0 mm 0,0 km/h (0 Bft) N 0 10 min 1 UV-I 221 W/m 0,0 km/h (0 Bft)
11.10.2010 09:50 7,7 C 81 % 1016,5 hPa 0,0 mm 0,0 km/h (0 Bft) N-NO 22 10 min 1 UV-I 255 W/m 3,2 km/h (1 Bft)
11.10.2010 10:00 8,3 C 78 % 1016,2 hPa 0,0 mm 1,6 km/h (1 Bft) N-NO 22 10 min 1 UV-I 283 W/m 4,8 km/h (1 Bft)
11.10.2010 10:10 9,1 C 75 % 1016,6 hPa 0,0 mm 0,0 km/h (0 Bft) O-NO 67 10 min 1 UV-I 315 W/m 4,8 km/h (1 Bft)
11.10.2010 10:20 9,6 C 72 % 1016,6 hPa 0,0 mm 1,6 km/h (1 Bft) O 90 10 min 1 UV-I 339 W/m 4,8 km/h (1 Bft)
11.10.2010 10:30 10,1 C 70 % 1016,5 hPa 0,0 mm 1,6 km/h (1 Bft) O 90 10 min 2 UV-I 346 W/m 8,0 km/h (2 Bft)
11.10.2010 10:40 10,3 C 66 % 1016,6 hPa 0,0 mm 0,0 km/h (0 Bft) O 90 10 min 2 UV-I 385 W/m 4,8 km/h (1 Bft)
11.10.2010 10:50 10,7 C 67 % 1016,6 hPa 0,0 mm 1,6 km/h (1 Bft) N-NO 22 10 min 2 UV-I 408 W/m 6,4 km/h (2 Bft)
11.10.2010 11:00 10,7 C 66 % 1016,7 hPa 0,0 mm 0,0 km/h (0 Bft) NO 45 10 min 2 UV-I 425 W/m 4,8 km/h (1 Bft)
11.10.2010 11:10 11,1 C 65 % 1016,7 hPa 0,0 mm 0,0 km/h (0 Bft) NO 45 10 min 2 UV-I 448 W/m 4,8 km/h (1 Bft)
11.10.2010 11:20 11,4 C 64 % 1016,5 hPa 0,0 mm 1,6 km/h (1 Bft) NW 315 10 min 2 UV-I 466 W/m 4,8 km/h (1 Bft)
11.10.2010 11:30 11,9 C 62 % 1016,6 hPa 0,0 mm 1,6 km/h (1 Bft) N-NO 22 10 min 2 UV-I 483 W/m 6,4 km/h (2 Bft)
11.10.2010 11:40 12,4 C 57 % 1016,7 hPa 0,0 mm 0,0 km/h (0 Bft) NW 315 10 min 2 UV-I 489 W/m 4,8 km/h (1 Bft)
11.10.2010 11:50 12,7 C 59 % 1016,8 hPa 0,0 mm 1,6 km/h (1 Bft) N-NW 337 10 min 2 UV-I 512 W/m 4,8 km/h (1 Bft)
11.10.2010 12:00 13,2 C 55 % 1016,8 hPa 0,0 mm 1,6 km/h (1 Bft) O-NO 67 10 min 3 UV-I 531 W/m 8,0 km/h (2 Bft)
11.10.2010 12:10 13,8 C 48 % 1016,7 hPa 0,0 mm 4,8 km/h (1 Bft) O 90 10 min 3 UV-I 541 W/m 11,3 km/h (2 Bft)
11.10.2010 12:20 14,1 C 47 % 1016,7 hPa 0,0 mm 4,8 km/h (1 Bft) O-NO 67 10 min 3 UV-I 554 W/m 14,5 km/h (3 Bft)
11.10.2010 12:30 14,3 C 47 % 1016,7 hPa 0,0 mm 4,8 km/h (1 Bft) O 90 10 min 3 UV-I 557 W/m 16,1 km/h (3 Bft)
11.10.2010 12:40 14,5 C 48 % 1016,9 hPa 0,0 mm 4,8 km/h (1 Bft) O 90 10 min 3 UV-I 563 W/m 9,7 km/h (2 Bft)
11.10.2010 12:50 14,8 C 48 % 1016,9 hPa 0,0 mm 3,2 km/h (1 Bft) O-NO 67 10 min 3 UV-I 566 W/m 9,7 km/h (2 Bft)
11.10.2010 13:00 15,2 C 45 % 1016,8 hPa 0,0 mm 3,2 km/h (1 Bft) O 90 10 min 3 UV-I 568 W/m 11,3 km/h (2 Bft)
11.10.2010 13:10 15,1 C 43 % 1016,6 hPa 0,0 mm 4,8 km/h (1 Bft) O-NO 67 10 min 3 UV-I 575 W/m 12,9 km/h (3 Bft)
11.10.2010 13:20 15,3 C 44 % 1016,6 hPa 0,0 mm 4,8 km/h (1 Bft) O-NO 67 10 min 3 UV-I 577 W/m 11,3 km/h (2 Bft)
11.10.2010 13:30 15,7 C 45 % 1016,4 hPa 0,0 mm 3,2 km/h (1 Bft) O 90 10 min 3 UV-I 582 W/m 11,3 km/h (2 Bft)
11.10.2010 13:40 15,9 C 45 % 1016,4 hPa 0,0 mm 1,6 km/h (1 Bft) O 90 10 min 3 UV-I 580 W/m 6,4 km/h (2 Bft)
11.10.2010 13:50 15,9 C 45 % 1016,3 hPa 0,0 mm 1,6 km/h (1 Bft) O-NO 67 10 min 3 UV-I 573 W/m 8,0 km/h (2 Bft)
11.10.2010 14:00 16,0 C 44 % 1016,4 hPa 0,0 mm 3,2 km/h (1 Bft) O 90 10 min 3 UV-I 568 W/m 12,9 km/h (3 Bft)
11.10.2010 14:10 16,3 C 43 % 1016,3 hPa 0,0 mm 3,2 km/h (1 Bft) O 90 10 min 3 UV-I 563 W/m 8,0 km/h (2 Bft)
11.10.2010 14:20 16,7 C 42 % 1016,2 hPa 0,0 mm 1,6 km/h (1 Bft) O 90 10 min 3 UV-I 557 W/m 9,7 km/h (2 Bft)
11.10.2010 14:30 16,6 C 44 % 1016,1 hPa 0,0 mm 3,2 km/h (1 Bft) O-NO 67 10 min 3 UV-I 547 W/m 16,1 km/h (3 Bft)
11.10.2010 14:40 16,7 C 43 % 1016,1 hPa 0,0 mm 3,2 km/h (1 Bft) O 90 10 min 2 UV-I 534 W/m 9,7 km/h (2 Bft)
11.10.2010 14:50 16,7 C 44 % 1016,0 hPa 0,0 mm 3,2 km/h (1 Bft) O-NO 67 10 min 2 UV-I 512 W/m 8,0 km/h (2 Bft)
11.10.2010 15:00 16,8 C 46 % 1016,1 hPa 0,0 mm 3,2 km/h (1 Bft) O-NO 67 10 min 2 UV-I 510 W/m 8,0 km/h (2 Bft)
11.10.2010 15:10 16,9 C 45 % 1016,1 hPa 0,0 mm 3,2 km/h (1 Bft) N-NO 22 10 min 2 UV-I 496 W/m 9,7 km/h (2 Bft)
11.10.2010 15:20 17,1 C 46 % 1016,2 hPa 0,0 mm 1,6 km/h (1 Bft) NO 45 10 min 2 UV-I 475 W/m 8,0 km/h (2 Bft)
11.10.2010 15:30 16,9 C 43 % 1016,1 hPa 0,0 mm 4,8 km/h (1 Bft) O 90 10 min 2 UV-I 457 W/m 14,5 km/h (3 Bft)
11.10.2010 15:40 16,9 C 45 % 1015,9 hPa 0,0 mm 3,2 km/h (1 Bft) O 90 10 min 2 UV-I 436 W/m 11,3 km/h (2 Bft)
11.10.2010 15:50 16,9 C 44 % 1015,9 hPa 0,0 mm 3,2 km/h (1 Bft) O-NO 67 10 min 2 UV-I 415 W/m 11,3 km/h (2 Bft)
11.10.2010 16:00 16,5 C 45 % 1015,8 hPa 0,0 mm 4,0 km/h (1 Bft) O-NO 78 10 min 1 UV-I 270 W/m 9,7 km/h (2 Bft)
11.10.2010 16:10 16,4 C 45 % 1015,7 hPa 0,0 mm 3,2 km/h (1 Bft) O-NO 67 10 min 1 UV-I 374 W/m 11,3 km/h (2 Bft)
11.10.2010 16:20 16,4 C 45 % 1015,8 hPa 0,0 mm 3,2 km/h (1 Bft) O 90 10 min 1 UV-I 352 W/m 11,3 km/h (2 Bft)
11.10.2010 16:30 16,3 C 43 % 1015,8 hPa 0,0 mm 3,2 km/h (1 Bft) O 90 10 min 1 UV-I 330 W/m 11,3 km/h (2 Bft)
11.10.2010 16:40 16,3 C 44 % 1015,7 hPa 0,0 mm 4,8 km/h (1 Bft) O-NO 67 10 min 1 UV-I 306 W/m 11,3 km/h (2 Bft)
11.10.2010 16:50 16,2 C 45 % 1015,6 hPa 0,0 mm 3,2 km/h (1 Bft) NO 45 10 min 1 UV-I 279 W/m 9,7 km/h (2 Bft)
11.10.2010 17:00 16,1 C 46 % 1015,3 hPa 0,0 mm 3,2 km/h (1 Bft) O-NO 67 10 min 1 UV-I 258 W/m 9,7 km/h (2 Bft)
11.10.2010 17:10 15,9 C 46 % 1015,4 hPa 0,0 mm 3,2 km/h (1 Bft) O 90 10 min 1 UV-I 232 W/m 9,7 km/h (2 Bft)
11.10.2010 17:20 15,7 C 45 % 1015,5 hPa 0,0 mm 1,6 km/h (1 Bft) O-NO 67 10 min 1 UV-I 207 W/m 9,7 km/h (2 Bft)
11.10.2010 17:30 15,3 C 46 % 1015,6 hPa 0,0 mm 3,2 km/h (1 Bft) O-NO 67 10 min 1 UV-I 181 W/m 14,5 km/h (3 Bft)
11.10.2010 17:40 14,9 C 48 % 1015,5 hPa 0,0 mm 3,2 km/h (1 Bft) O-NO 67 10 min 0 UV-I 156 W/m 9,7 km/h (2 Bft)
11.10.2010 17:50 14,6 C 50 % 1015,6 hPa 0,0 mm 3,2 km/h (1 Bft) O-NO 67 10 min 0 UV-I 128 W/m 8,0 km/h (2 Bft)
11.10.2010 18:00 14,2 C 52 % 1015,5 hPa 0,0 mm 1,6 km/h (1 Bft) O-NO 67 10 min 0 UV-I 100 W/m 8,0 km/h (2 Bft)
11.10.2010 18:10 13,4 C 55 % 1015,5 hPa 0,0 mm 0,0 km/h (0 Bft) O 90 0 min 0 UV-I 21 W/m 4,8 km/h (1 Bft)
11.10.2010 18:20 12,8 C 58 % 1015,6 hPa 0,0 mm 0,0 km/h (0 Bft) NO 45 0 min 0 UV-I 18 W/m 4,8 km/h (1 Bft)
11.10.2010 18:30 12,3 C 59 % 1015,6 hPa 0,0 mm 0,0 km/h (0 Bft) NO 45 0 min 0 UV-I 12 W/m 8,0 km/h (2 Bft)
11.10.2010 18:40 11,9 C 62 % 1015,6 hPa 0,0 mm 0,0 km/h (0 Bft) NO 45 0 min 0 UV-I 7 W/m 4,8 km/h (1 Bft)
11.10.2010 18:50 11,6 C 63 % 1015,7 hPa 0,0 mm 1,6 km/h (1 Bft) O-NO 67 0 min 0 UV-I 0 W/m 6,4 km/h (2 Bft)
11.10.2010 19:00 11,3 C 65 % 1015,8 hPa 0,0 mm 0,0 km/h (0 Bft) O-NO 67 0 min 0 UV-I 0 W/m 4,8 km/h (1 Bft)
11.10.2010 19:10 11,1 C 66 % 1015,9 hPa 0,0 mm 0,0 km/h (0 Bft) O-NO 67 0 min 0 UV-I 0 W/m 4,8 km/h (1 Bft)
11.10.2010 19:20 10,8 C 67 % 1016,1 hPa 0,0 mm 0,0 km/h (0 Bft) NO 45 0 min 0 UV-I 0 W/m 3,2 km/h (1 Bft)
11.10.2010 19:30 10,6 C 68 % 1016,2 hPa 0,0 mm 0,0 km/h (0 Bft) NO 45 0 min 0 UV-I 0 W/m 1,6 km/h (1 Bft)
11.10.2010 19:40 10,1 C 70 % 1016,2 hPa 0,0 mm 0,0 km/h (0 Bft) NO 45 0 min 0 UV-I 0 W/m 1,6 km/h (1 Bft)
11.10.2010 19:50 9,8 C 71 % 1016,3 hPa 0,0 mm 0,0 km/h (0 Bft) NO 45 0 min 0 UV-I 0 W/m 1,6 km/h (1 Bft)
11.10.2010 20:00 9,4 C 73 % 1016,4 hPa 0,0 mm 0,0 km/h (0 Bft) NO 45 0 min 0 UV-I 0 W/m 3,2 km/h (1 Bft)
11.10.2010 20:10 9,2 C 75 % 1016,4 hPa 0,0 mm 0,0 km/h (0 Bft) NO 45 0 min 0 UV-I 0 W/m 1,6 km/h (1 Bft)
11.10.2010 20:20 8,9 C 76 % 1016,5 hPa 0,0 mm 0,0 km/h (0 Bft) NO 45 0 min 0 UV-I 0 W/m 3,2 km/h (1 Bft)
11.10.2010 20:30 8,9 C 76 % 1016,6 hPa 0,0 mm 0,0 km/h (0 Bft) N-NO 22 0 min 0 UV-I 0 W/m 4,8 km/h (1 Bft)
11.10.2010 20:40 8,8 C 76 % 1016,8 hPa 0,0 mm 0,0 km/h (0 Bft) N 0 0 min 0 UV-I 0 W/m 0,0 km/h (0 Bft)
11.10.2010 20:50 8,4 C 77 % 1016,9 hPa 0,0 mm 0,0 km/h (0 Bft) N 0 0 min 0 UV-I 0 W/m 0,0 km/h (0 Bft)
11.10.2010 21:00 8,0 C 78 % 1016,9 hPa 0,0 mm 0,0 km/h (0 Bft) N 0 0 min 0 UV-I 0 W/m 0,0 km/h (0 Bft)
11.10.2010 21:10 7,9 C 79 % 1017,0 hPa 0,0 mm 0,0 km/h (0 Bft) N 0 0 min 0 UV-I 0 W/m 0,0 km/h (0 Bft)
11.10.2010 21:20 7,6 C 80 % 1017,1 hPa 0,0 mm 0,0 km/h (0 Bft) N-NO 22 0 min 0 UV-I 0 W/m 1,6 km/h (1 Bft)
11.10.2010 21:30 7,3 C 81 % 1017,2 hPa 0,0 mm 0,0 km/h (0 Bft) N 0 0 min 0 UV-I 0 W/m 0,0 km/h (0 Bft)
11.10.2010 21:40 7,1 C 82 % 1017,3 hPa 0,0 mm 0,0 km/h (0 Bft) N-NO 22 0 min 0 UV-I 0 W/m 1,6 km/h (1 Bft)
11.10.2010 21:50 7,1 C 82 % 1017,3 hPa 0,0 mm 0,0 km/h (0 Bft) N-NO 22 0 min 0 UV-I 0 W/m 1,6 km/h (1 Bft)
11.10.2010 22:00 6,9 C 82 % 1017,3 hPa 0,0 mm 0,0 km/h (0 Bft) N-NO 22 0 min 0 UV-I 0 W/m 1,6 km/h (1 Bft)
11.10.2010 22:10 7,0 C 83 % 1017,2 hPa 0,0 mm 0,0 km/h (0 Bft) O-NO 67 0 min 0 UV-I 0 W/m 6,4 km/h (2 Bft)
11.10.2010 22:20 7,3 C 82 % 1017,3 hPa 0,0 mm 0,0 km/h (0 Bft) NO 45 0 min 0 UV-I 0 W/m 4,8 km/h (1 Bft)
11.10.2010 22:30 7,4 C 81 % 1017,4 hPa 0,0 mm 0,0 km/h (0 Bft) O-NO 67 0 min 0 UV-I 0 W/m 3,2 km/h (1 Bft)
11.10.2010 22:40 7,3 C 81 % 1017,4 hPa 0,0 mm 0,0 km/h (0 Bft) O-NO 67 0 min 0 UV-I 0 W/m 1,6 km/h (1 Bft)
11.10.2010 22:50 7,1 C 82 % 1017,3 hPa 0,0 mm 0,0 km/h (0 Bft) N 0 0 min 0 UV-I 0 W/m 0,0 km/h (0 Bft)
11.10.2010 23:00 6,7 C 83 % 1017,3 hPa 0,0 mm 0,0 km/h (0 Bft) N 0 0 min 0 UV-I 0 W/m 0,0 km/h (0 Bft)
11.10.2010 23:10 6,3 C 84 % 1017,4 hPa 0,0 mm 0,0 km/h (0 Bft) N 0 0 min 0 UV-I 0 W/m 0,0 km/h (0 Bft)
11.10.2010 23:20 6,2 C 84 % 1017,6 hPa 0,0 mm 0,0 km/h (0 Bft) O-NO 67 0 min 0 UV-I 0 W/m 1,6 km/h (1 Bft)
11.10.2010 23:30 5,9 C 85 % 1017,5 hPa 0,0 mm 0,0 km/h (0 Bft) N 0 0 min 0 UV-I 0 W/m 0,0 km/h (0 Bft)
11.10.2010 23:40 5,7 C 86 % 1017,6 hPa 0,0 mm 0,0 km/h (0 Bft) N 0 0 min 0 UV-I 0 W/m 0,0 km/h (0 Bft)
11.10.2010 23:50 5,4 C 86 % 1017,4 hPa 0,0 mm 0,0 km/h (0 Bft) N 0 0 min 0 UV-I 0 W/m 0,0 km/h (0 Bft)
_ Min-Zeit 08:00 14:20 01:00 - 00:10 - - - - - 00:10
Minimum _ 2,8 C 42 % 1015,3 hPa - 0,0 km/h (0 Bft) - - - - - 0,0 km/h (0 Bft)
_ Max-Zeit 15:20 08:50 23:20 00:00 12:10 - - 08:50 12:50 13:30 12:30
Maximum _ 17,2 C 91 % 1017,6 hPa 0,0 mm 4,8 km/h
O (1 Bft)
- - 10 min 3 UV-I 582 W/m 16,1 km/h
SO (3 Bft)
Durchschnitt _ 9,2 C 71 % 1016,2 hPa #0,0 mm 1,0 km/h (0 Bft) O-NO - #9:20 h 2 UV-I 340 W/m 4,5 km/h (1 Bft)